sensor_id;sensor_type;location;lat;lon;timestamp;P1;durP1;ratioP1;P2;durP2;ratioP2
209;SDS011;90;48.810;9.120;2023-05-15T00:01:16;6.80;;;6.40;;
209;SDS011;90;48.810;9.120;2023-05-15T00:03:42;6.80;;;6.27;;
209;SDS011;90;48.810;9.120;2023-05-15T00:06:09;7.07;;;6.70;;
209;SDS011;90;48.810;9.120;2023-05-15T00:08:37;8.67;;;6.50;;
209;SDS011;90;48.810;9.120;2023-05-15T00:11:04;9.10;;;6.60;;
209;SDS011;90;48.810;9.120;2023-05-15T00:13:31;6.87;;;6.10;;
209;SDS011;90;48.810;9.120;2023-05-15T00:15:57;8.10;;;6.60;;
209;SDS011;90;48.810;9.120;2023-05-15T00:18:24;9.70;;;6.03;;
209;SDS011;90;48.810;9.120;2023-05-15T00:20:51;7.67;;;6.20;;
209;SDS011;90;48.810;9.120;2023-05-15T00:23:18;6.83;;;5.90;;
209;SDS011;90;48.810;9.120;2023-05-15T00:25:45;7.80;;;6.00;;
209;SDS011;90;48.810;9.120;2023-05-15T00:28:12;7.30;;;6.07;;
209;SDS011;90;48.810;9.120;2023-05-15T00:30:39;7.40;;;5.70;;
209;SDS011;90;48.810;9.120;2023-05-15T00:33:06;7.00;;;5.73;;
209;SDS011;90;48.810;9.120;2023-05-15T00:35:33;6.30;;;5.50;;
209;SDS011;90;48.810;9.120;2023-05-15T00:37:59;6.80;;;6.20;;
209;SDS011;90;48.810;9.120;2023-05-15T00:40:26;6.53;;;5.80;;
209;SDS011;90;48.810;9.120;2023-05-15T00:42:55;8.13;;;6.20;;
209;SDS011;90;48.810;9.120;2023-05-15T00:45:23;6.70;;;6.30;;
209;SDS011;90;48.810;9.120;2023-05-15T00:47:50;6.80;;;6.00;;
209;SDS011;90;48.810;9.120;2023-05-15T00:50:19;6.47;;;6.10;;
209;SDS011;90;48.810;9.120;2023-05-15T00:52:47;7.97;;;6.50;;
209;SDS011;90;48.810;9.120;2023-05-15T00:55:14;7.77;;;6.73;;
209;SDS011;90;48.810;9.120;2023-05-15T00:57:41;7.70;;;6.10;;
209;SDS011;90;48.810;9.120;2023-05-15T01:00:11;7.17;;;6.37;;
209;SDS011;90;48.810;9.120;2023-05-15T01:02:40;8.03;;;7.13;;
209;SDS011;90;48.810;9.120;2023-05-15T01:05:07;7.43;;;6.47;;
209;SDS011;90;48.810;9.120;2023-05-15T01:07:43;7.93;;;6.13;;
209;SDS011;90;48.810;9.120;2023-05-15T01:10:19;6.63;;;6.10;;
209;SDS011;90;48.810;9.120;2023-05-15T01:12:48;6.93;;;6.30;;
209;SDS011;90;48.810;9.120;2023-05-15T01:15:19;7.30;;;6.07;;
209;SDS011;90;48.810;9.120;2023-05-15T01:17:46;8.33;;;6.50;;
209;SDS011;90;48.810;9.120;2023-05-15T01:20:12;9.80;;;7.10;;
209;SDS011;90;48.810;9.120;2023-05-15T01:22:45;7.30;;;7.00;;
209;SDS011;90;48.810;9.120;2023-05-15T01:28:20;10.03;;;6.83;;
209;SDS011;90;48.810;9.120;2023-05-15T01:30:51;7.13;;;6.63;;
209;SDS011;90;48.810;9.120;2023-05-15T01:33:21;8.13;;;6.30;;
209;SDS011;90;48.810;9.120;2023-05-15T01:35:53;10.47;;;6.70;;
209;SDS011;90;48.810;9.120;2023-05-15T01:38:26;10.40;;;6.33;;
209;SDS011;90;48.810;9.120;2023-05-15T01:41:01;8.77;;;6.23;;
209;SDS011;90;48.810;9.120;2023-05-15T01:43:32;6.27;;;5.77;;
209;SDS011;90;48.810;9.120;2023-05-15T01:46:04;6.80;;;6.20;;
209;SDS011;90;48.810;9.120;2023-05-15T01:48:32;7.77;;;6.07;;
209;SDS011;90;48.810;9.120;2023-05-15T01:51:01;10.80;;;6.20;;
209;SDS011;90;48.810;9.120;2023-05-15T01:53:30;6.17;;;5.87;;
209;SDS011;90;48.810;9.120;2023-05-15T01:55:58;10.27;;;6.53;;
209;SDS011;90;48.810;9.120;2023-05-15T01:58:25;7.37;;;6.23;;
209;SDS011;90;48.810;9.120;2023-05-15T02:00:55;6.73;;;6.13;;
209;SDS011;90;48.810;9.120;2023-05-15T02:03:22;8.90;;;5.97;;
209;SDS011;90;48.810;9.120;2023-05-15T02:05:49;9.93;;;6.50;;
209;SDS011;90;48.810;9.120;2023-05-15T02:08:20;8.17;;;6.27;;
209;SDS011;90;48.810;9.120;2023-05-15T02:10:49;8.47;;;6.70;;
209;SDS011;90;48.810;9.120;2023-05-15T02:13:16;6.43;;;6.07;;
209;SDS011;90;48.810;9.120;2023-05-15T02:15:44;7.20;;;5.80;;
209;SDS011;90;48.810;9.120;2023-05-15T02:18:13;6.23;;;5.87;;
209;SDS011;90;48.810;9.120;2023-05-15T02:20:39;10.70;;;6.30;;
209;SDS011;90;48.810;9.120;2023-05-15T02:23:06;9.43;;;6.23;;
209;SDS011;90;48.810;9.120;2023-05-15T02:25:33;8.27;;;6.30;;
209;SDS011;90;48.810;9.120;2023-05-15T02:28:08;7.60;;;6.30;;
209;SDS011;90;48.810;9.120;2023-05-15T02:30:42;7.77;;;6.73;;
209;SDS011;90;48.810;9.120;2023-05-15T02:33:18;7.43;;;6.37;;
209;SDS011;90;48.810;9.120;2023-05-15T02:35:57;10.87;;;7.10;;
209;SDS011;90;48.810;9.120;2023-05-15T02:38:27;8.20;;;6.87;;
209;SDS011;90;48.810;9.120;2023-05-15T02:40:56;11.17;;;7.00;;
209;SDS011;90;48.810;9.120;2023-05-15T02:43:24;13.20;;;7.20;;
209;SDS011;90;48.810;9.120;2023-05-15T02:45:52;6.90;;;6.57;;
209;SDS011;90;48.810;9.120;2023-05-15T02:48:21;7.23;;;6.37;;
209;SDS011;90;48.810;9.120;2023-05-15T02:50:50;7.00;;;5.93;;
209;SDS011;90;48.810;9.120;2023-05-15T02:53:17;7.80;;;6.50;;
209;SDS011;90;48.810;9.120;2023-05-15T02:55:43;8.73;;;6.50;;
209;SDS011;90;48.810;9.120;2023-05-15T02:58:10;6.17;;;5.80;;
209;SDS011;90;48.810;9.120;2023-05-15T03:00:37;7.47;;;6.00;;
209;SDS011;90;48.810;9.120;2023-05-15T03:03:04;7.37;;;6.00;;
209;SDS011;90;48.810;9.120;2023-05-15T03:05:32;11.10;;;6.57;;
209;SDS011;90;48.810;9.120;2023-05-15T03:07:59;7.63;;;6.43;;
209;SDS011;90;48.810;9.120;2023-05-15T03:10:25;6.93;;;6.03;;
209;SDS011;90;48.810;9.120;2023-05-15T03:12:54;6.33;;;5.97;;
209;SDS011;90;48.810;9.120;2023-05-15T03:15:22;6.30;;;5.70;;
209;SDS011;90;48.810;9.120;2023-05-15T03:17:49;7.13;;;6.13;;
209;SDS011;90;48.810;9.120;2023-05-15T03:20:15;7.43;;;6.53;;
209;SDS011;90;48.810;9.120;2023-05-15T03:22:44;7.93;;;6.13;;
209;SDS011;90;48.810;9.120;2023-05-15T03:25:10;7.00;;;5.87;;
209;SDS011;90;48.810;9.120;2023-05-15T03:27:37;7.83;;;6.47;;
209;SDS011;90;48.810;9.120;2023-05-15T03:30:04;8.03;;;6.30;;
209;SDS011;90;48.810;9.120;2023-05-15T03:32:32;7.57;;;6.53;;
209;SDS011;90;48.810;9.120;2023-05-15T03:34:58;9.03;;;7.17;;
209;SDS011;90;48.810;9.120;2023-05-15T03:37:25;11.47;;;6.17;;
209;SDS011;90;48.810;9.120;2023-05-15T03:39:53;7.20;;;6.13;;
209;SDS011;90;48.810;9.120;2023-05-15T03:42:20;10.77;;;7.23;;
209;SDS011;90;48.810;9.120;2023-05-15T03:44:48;13.60;;;7.40;;
209;SDS011;90;48.810;9.120;2023-05-15T03:47:16;7.53;;;6.43;;
209;SDS011;90;48.810;9.120;2023-05-15T03:49:43;11.10;;;6.37;;
209;SDS011;90;48.810;9.120;2023-05-15T03:52:10;8.63;;;7.03;;
209;SDS011;90;48.810;9.120;2023-05-15T03:54:37;9.40;;;7.20;;
209;SDS011;90;48.810;9.120;2023-05-15T03:57:06;8.97;;;7.33;;
209;SDS011;90;48.810;9.120;2023-05-15T03:59:32;10.77;;;7.30;;
209;SDS011;90;48.810;9.120;2023-05-15T04:01:59;7.80;;;6.47;;
209;SDS011;90;48.810;9.120;2023-05-15T04:04:26;7.73;;;6.70;;
209;SDS011;90;48.810;9.120;2023-05-15T04:06:52;7.07;;;6.23;;
209;SDS011;90;48.810;9.120;2023-05-15T04:09:19;10.43;;;7.60;;
209;SDS011;90;48.810;9.120;2023-05-15T04:11:46;8.65;;;6.90;;
209;SDS011;90;48.810;9.120;2023-05-15T04:14:14;10.33;;;7.40;;
209;SDS011;90;48.810;9.120;2023-05-15T04:16:41;9.43;;;7.47;;
209;SDS011;90;48.810;9.120;2023-05-15T04:19:07;10.40;;;7.70;;
209;SDS011;90;48.810;9.120;2023-05-15T04:21:34;13.50;;;7.53;;
209;SDS011;90;48.810;9.120;2023-05-15T04:24:00;12.60;;;7.90;;
209;SDS011;90;48.810;9.120;2023-05-15T04:26:28;11.30;;;7.60;;
209;SDS011;90;48.810;9.120;2023-05-15T04:28:55;14.60;;;9.13;;
209;SDS011;90;48.810;9.120;2023-05-15T04:31:23;14.67;;;8.03;;
209;SDS011;90;48.810;9.120;2023-05-15T04:33:51;11.07;;;8.40;;
209;SDS011;90;48.810;9.120;2023-05-15T04:36:17;9.60;;;7.70;;
209;SDS011;90;48.810;9.120;2023-05-15T04:38:44;10.77;;;8.07;;
209;SDS011;90;48.810;9.120;2023-05-15T04:41:11;12.63;;;8.30;;
209;SDS011;90;48.810;9.120;2023-05-15T04:43:38;10.80;;;7.80;;
209;SDS011;90;48.810;9.120;2023-05-15T04:46:04;11.13;;;7.97;;
209;SDS011;90;48.810;9.120;2023-05-15T04:48:32;24.47;;;9.13;;
209;SDS011;90;48.810;9.120;2023-05-15T04:50:59;11.63;;;8.40;;
209;SDS011;90;48.810;9.120;2023-05-15T04:53:26;12.13;;;9.07;;
209;SDS011;90;48.810;9.120;2023-05-15T04:55:52;14.63;;;8.77;;
209;SDS011;90;48.810;9.120;2023-05-15T04:58:19;13.33;;;9.20;;
209;SDS011;90;48.810;9.120;2023-05-15T05:00:46;13.80;;;9.07;;
209;SDS011;90;48.810;9.120;2023-05-15T05:03:13;21.30;;;9.43;;
209;SDS011;90;48.810;9.120;2023-05-15T05:05:41;17.73;;;9.60;;
209;SDS011;90;48.810;9.120;2023-05-15T05:08:07;12.93;;;9.17;;
209;SDS011;90;48.810;9.120;2023-05-15T05:10:34;13.30;;;10.00;;
209;SDS011;90;48.810;9.120;2023-05-15T05:13:00;13.70;;;9.97;;
209;SDS011;90;48.810;9.120;2023-05-15T05:15:27;12.13;;;8.40;;
209;SDS011;90;48.810;9.120;2023-05-15T05:17:54;11.63;;;9.20;;
209;SDS011;90;48.810;9.120;2023-05-15T05:20:20;18.03;;;10.00;;
209;SDS011;90;48.810;9.120;2023-05-15T05:22:49;9.73;;;5.80;;
209;SDS011;90;48.810;9.120;2023-05-15T05:25:16;11.60;;;9.30;;
209;SDS011;90;48.810;9.120;2023-05-15T05:27:42;12.93;;;9.97;;
209;SDS011;90;48.810;9.120;2023-05-15T05:30:09;14.90;;;9.17;;
209;SDS011;90;48.810;9.120;2023-05-15T05:32:37;11.57;;;9.03;;
209;SDS011;90;48.810;9.120;2023-05-15T05:35:04;14.23;;;9.70;;
209;SDS011;90;48.810;9.120;2023-05-15T05:37:30;12.37;;;9.80;;
209;SDS011;90;48.810;9.120;2023-05-15T05:39:58;14.50;;;10.50;;
209;SDS011;90;48.810;9.120;2023-05-15T05:42:25;15.90;;;11.03;;
209;SDS011;90;48.810;9.120;2023-05-15T05:44:52;18.33;;;12.00;;
209;SDS011;90;48.810;9.120;2023-05-15T05:47:18;17.83;;;10.93;;
209;SDS011;90;48.810;9.120;2023-05-15T05:49:45;14.50;;;10.30;;
209;SDS011;90;48.810;9.120;2023-05-15T05:52:12;17.77;;;11.70;;
209;SDS011;90;48.810;9.120;2023-05-15T05:54:39;18.57;;;11.93;;
209;SDS011;90;48.810;9.120;2023-05-15T05:57:08;15.30;;;10.47;;
209;SDS011;90;48.810;9.120;2023-05-15T05:59:35;18.70;;;12.03;;
209;SDS011;90;48.810;9.120;2023-05-15T06:02:01;21.07;;;13.00;;
209;SDS011;90;48.810;9.120;2023-05-15T06:04:29;15.93;;;11.20;;
209;SDS011;90;48.810;9.120;2023-05-15T06:06:57;18.57;;;12.57;;
209;SDS011;90;48.810;9.120;2023-05-15T06:09:23;16.47;;;11.67;;
209;SDS011;90;48.810;9.120;2023-05-15T06:11:50;19.47;;;11.73;;
209;SDS011;90;48.810;9.120;2023-05-15T06:14:18;16.40;;;10.40;;
209;SDS011;90;48.810;9.120;2023-05-15T06:16:45;18.17;;;11.30;;
209;SDS011;90;48.810;9.120;2023-05-15T06:19:11;16.00;;;11.93;;
209;SDS011;90;48.810;9.120;2023-05-15T06:21:38;17.67;;;11.57;;
209;SDS011;90;48.810;9.120;2023-05-15T06:24:05;16.17;;;10.10;;
209;SDS011;90;48.810;9.120;2023-05-15T06:26:31;14.50;;;10.30;;
209;SDS011;90;48.810;9.120;2023-05-15T06:28:58;19.60;;;10.40;;
209;SDS011;90;48.810;9.120;2023-05-15T06:31:26;16.67;;;10.57;;
209;SDS011;90;48.810;9.120;2023-05-15T06:33:53;15.73;;;9.70;;
209;SDS011;90;48.810;9.120;2023-05-15T06:36:20;13.07;;;9.57;;
209;SDS011;90;48.810;9.120;2023-05-15T06:38:46;14.80;;;9.57;;
209;SDS011;90;48.810;9.120;2023-05-15T06:41:13;13.13;;;9.30;;
209;SDS011;90;48.810;9.120;2023-05-15T06:43:40;17.83;;;9.10;;
209;SDS011;90;48.810;9.120;2023-05-15T06:46:06;12.23;;;9.70;;
209;SDS011;90;48.810;9.120;2023-05-15T06:48:35;9.83;;;8.43;;
209;SDS011;90;48.810;9.120;2023-05-15T06:51:01;13.40;;;8.90;;
209;SDS011;90;48.810;9.120;2023-05-15T06:53:28;9.37;;;7.90;;
209;SDS011;90;48.810;9.120;2023-05-15T06:55:55;11.30;;;7.70;;
209;SDS011;90;48.810;9.120;2023-05-15T06:58:22;10.13;;;8.17;;
209;SDS011;90;48.810;9.120;2023-05-15T07:00:49;15.80;;;8.57;;
209;SDS011;90;48.810;9.120;2023-05-15T07:03:16;14.90;;;8.00;;
209;SDS011;90;48.810;9.120;2023-05-15T07:05:44;8.47;;;7.93;;
209;SDS011;90;48.810;9.120;2023-05-15T07:08:11;11.50;;;8.33;;
209;SDS011;90;48.810;9.120;2023-05-15T07:10:37;9.67;;;7.87;;
209;SDS011;90;48.810;9.120;2023-05-15T07:13:04;9.20;;;7.90;;
209;SDS011;90;48.810;9.120;2023-05-15T07:15:31;13.63;;;8.37;;
209;SDS011;90;48.810;9.120;2023-05-15T07:17:58;10.07;;;6.77;;
209;SDS011;90;48.810;9.120;2023-05-15T07:20:24;10.47;;;8.00;;
209;SDS011;90;48.810;9.120;2023-05-15T07:22:52;11.10;;;7.80;;
209;SDS011;90;48.810;9.120;2023-05-15T07:25:19;9.00;;;7.70;;
209;SDS011;90;48.810;9.120;2023-05-15T07:27:46;9.47;;;7.63;;
209;SDS011;90;48.810;9.120;2023-05-15T07:30:13;9.90;;;8.67;;
209;SDS011;90;48.810;9.120;2023-05-15T07:32:40;11.23;;;8.30;;
209;SDS011;90;48.810;9.120;2023-05-15T07:35:07;8.77;;;7.07;;
209;SDS011;90;48.810;9.120;2023-05-15T07:37:35;9.50;;;8.23;;
209;SDS011;90;48.810;9.120;2023-05-15T07:40:04;15.00;;;8.70;;
209;SDS011;90;48.810;9.120;2023-05-15T07:42:31;9.50;;;7.07;;
209;SDS011;90;48.810;9.120;2023-05-15T07:44:58;9.97;;;8.57;;
209;SDS011;90;48.810;9.120;2023-05-15T07:47:25;10.70;;;8.97;;
209;SDS011;90;48.810;9.120;2023-05-15T07:49:51;9.40;;;7.80;;
209;SDS011;90;48.810;9.120;2023-05-15T07:52:18;8.83;;;7.63;;
209;SDS011;90;48.810;9.120;2023-05-15T07:54:45;11.40;;;7.93;;
209;SDS011;90;48.810;9.120;2023-05-15T07:57:13;10.80;;;8.03;;
209;SDS011;90;48.810;9.120;2023-05-15T07:59:40;7.07;;;6.63;;
209;SDS011;90;48.810;9.120;2023-05-15T08:02:07;10.37;;;7.13;;
209;SDS011;90;48.810;9.120;2023-05-15T08:04:33;10.27;;;8.33;;
209;SDS011;90;48.810;9.120;2023-05-15T08:07:00;10.40;;;7.23;;
209;SDS011;90;48.810;9.120;2023-05-15T08:09:27;8.47;;;6.57;;
209;SDS011;90;48.810;9.120;2023-05-15T08:11:54;8.37;;;6.60;;
209;SDS011;90;48.810;9.120;2023-05-15T08:14:23;7.00;;;5.80;;
209;SDS011;90;48.810;9.120;2023-05-15T08:16:49;8.80;;;6.60;;
209;SDS011;90;48.810;9.120;2023-05-15T08:19:16;6.90;;;6.50;;
209;SDS011;90;48.810;9.120;2023-05-15T08:21:43;10.60;;;6.80;;
209;SDS011;90;48.810;9.120;2023-05-15T08:24:09;7.03;;;6.67;;
209;SDS011;90;48.810;9.120;2023-05-15T08:26:36;10.70;;;6.80;;
209;SDS011;90;48.810;9.120;2023-05-15T08:29:03;7.67;;;6.67;;
209;SDS011;90;48.810;9.120;2023-05-15T08:31:31;8.03;;;6.30;;
209;SDS011;90;48.810;9.120;2023-05-15T08:33:58;11.70;;;7.37;;
209;SDS011;90;48.810;9.120;2023-05-15T08:36:24;7.70;;;6.40;;
209;SDS011;90;48.810;9.120;2023-05-15T08:38:51;8.13;;;7.00;;
209;SDS011;90;48.810;9.120;2023-05-15T08:41:20;6.83;;;6.43;;
209;SDS011;90;48.810;9.120;2023-05-15T08:43:55;8.20;;;6.50;;
209;SDS011;90;48.810;9.120;2023-05-15T08:46:23;8.63;;;7.50;;
209;SDS011;90;48.810;9.120;2023-05-15T08:48:51;10.33;;;7.17;;
209;SDS011;90;48.810;9.120;2023-05-15T08:51:19;6.73;;;6.17;;
209;SDS011;90;48.810;9.120;2023-05-15T08:53:47;13.07;;;7.63;;
209;SDS011;90;48.810;9.120;2023-05-15T08:56:15;9.60;;;6.47;;
209;SDS011;90;48.810;9.120;2023-05-15T08:58:43;8.40;;;7.97;;
209;SDS011;90;48.810;9.120;2023-05-15T09:01:11;9.00;;;8.30;;
209;SDS011;90;48.810;9.120;2023-05-15T09:03:39;10.23;;;8.10;;
209;SDS011;90;48.810;9.120;2023-05-15T09:06:07;14.33;;;9.23;;
209;SDS011;90;48.810;9.120;2023-05-15T09:08:35;8.88;;;7.05;;
209;SDS011;90;48.810;9.120;2023-05-15T09:11:02;13.23;;;8.47;;
209;SDS011;90;48.810;9.120;2023-05-15T09:13:31;8.43;;;6.77;;
209;SDS011;90;48.810;9.120;2023-05-15T09:15:58;9.00;;;7.60;;
209;SDS011;90;48.810;9.120;2023-05-15T09:18:25;10.87;;;7.10;;
209;SDS011;90;48.810;9.120;2023-05-15T09:20:52;10.43;;;7.37;;
209;SDS011;90;48.810;9.120;2023-05-15T09:23:24;9.30;;;6.90;;
209;SDS011;90;48.810;9.120;2023-05-15T09:25:52;10.80;;;8.10;;
209;SDS011;90;48.810;9.120;2023-05-15T09:28:24;10.80;;;6.80;;
209;SDS011;90;48.810;9.120;2023-05-15T09:30:55;10.60;;;6.67;;
209;SDS011;90;48.810;9.120;2023-05-15T09:33:26;8.13;;;7.73;;
209;SDS011;90;48.810;9.120;2023-05-15T09:35:54;9.17;;;7.37;;
209;SDS011;90;48.810;9.120;2023-05-15T09:38:21;11.70;;;7.53;;
209;SDS011;90;48.810;9.120;2023-05-15T09:40:49;10.53;;;7.63;;
209;SDS011;90;48.810;9.120;2023-05-15T09:43:15;8.93;;;8.17;;
209;SDS011;90;48.810;9.120;2023-05-15T09:45:42;12.63;;;8.70;;
209;SDS011;90;48.810;9.120;2023-05-15T09:48:12;9.60;;;8.00;;
209;SDS011;90;48.810;9.120;2023-05-15T09:50:40;8.50;;;7.40;;
209;SDS011;90;48.810;9.120;2023-05-15T09:53:06;9.87;;;7.80;;
209;SDS011;90;48.810;9.120;2023-05-15T09:55:37;13.23;;;8.07;;
209;SDS011;90;48.810;9.120;2023-05-15T09:58:07;9.20;;;8.70;;
209;SDS011;90;48.810;9.120;2023-05-15T10:00:36;21.03;;;7.07;;
209;SDS011;90;48.810;9.120;2023-05-15T10:03:03;8.23;;;6.80;;
209;SDS011;90;48.810;9.120;2023-05-15T10:05:31;10.43;;;7.60;;
209;SDS011;90;48.810;9.120;2023-05-15T10:07:58;10.10;;;8.43;;
209;SDS011;90;48.810;9.120;2023-05-15T10:10:26;8.27;;;7.87;;
209;SDS011;90;48.810;9.120;2023-05-15T10:12:54;7.70;;;7.33;;
209;SDS011;90;48.810;9.120;2023-05-15T10:15:27;14.10;;;8.40;;
209;SDS011;90;48.810;9.120;2023-05-15T10:17:54;10.17;;;8.10;;
209;SDS011;90;48.810;9.120;2023-05-15T10:20:22;8.93;;;8.13;;
209;SDS011;90;48.810;9.120;2023-05-15T10:22:51;8.07;;;7.67;;
209;SDS011;90;48.810;9.120;2023-05-15T10:25:20;8.47;;;7.53;;
209;SDS011;90;48.810;9.120;2023-05-15T10:27:52;7.87;;;7.47;;
209;SDS011;90;48.810;9.120;2023-05-15T10:30:21;8.73;;;8.23;;
209;SDS011;90;48.810;9.120;2023-05-15T10:32:50;8.13;;;7.07;;
209;SDS011;90;48.810;9.120;2023-05-15T10:35:17;7.30;;;6.67;;
209;SDS011;90;48.810;9.120;2023-05-15T10:37:46;7.23;;;6.83;;
209;SDS011;90;48.810;9.120;2023-05-15T10:40:14;13.67;;;7.10;;
209;SDS011;90;48.810;9.120;2023-05-15T10:42:43;7.43;;;7.00;;
209;SDS011;90;48.810;9.120;2023-05-15T10:45:11;8.73;;;7.33;;
209;SDS011;90;48.810;9.120;2023-05-15T10:47:37;7.37;;;6.97;;
209;SDS011;90;48.810;9.120;2023-05-15T10:50:08;7.10;;;6.63;;
209;SDS011;90;48.810;9.120;2023-05-15T10:52:37;8.37;;;6.90;;
209;SDS011;90;48.810;9.120;2023-05-15T10:55:05;7.37;;;6.90;;
209;SDS011;90;48.810;9.120;2023-05-15T10:57:32;6.87;;;6.47;;
209;SDS011;90;48.810;9.120;2023-05-15T11:00:00;8.87;;;6.90;;
209;SDS011;90;48.810;9.120;2023-05-15T11:02:28;7.53;;;6.97;;
209;SDS011;90;48.810;9.120;2023-05-15T11:04:55;7.10;;;6.70;;
209;SDS011;90;48.810;9.120;2023-05-15T11:07:24;6.90;;;6.50;;
209;SDS011;90;48.810;9.120;2023-05-15T11:09:51;7.20;;;6.80;;
209;SDS011;90;48.810;9.120;2023-05-15T11:12:18;6.70;;;6.30;;
209;SDS011;90;48.810;9.120;2023-05-15T11:20:36;6.47;;;6.03;;
209;SDS011;90;48.810;9.120;2023-05-15T11:23:05;7.90;;;7.50;;
209;SDS011;90;48.810;9.120;2023-05-15T11:25:33;7.47;;;7.07;;
209;SDS011;90;48.810;9.120;2023-05-15T11:28:01;6.65;;;6.25;;
209;SDS011;90;48.810;9.120;2023-05-15T11:30:35;7.23;;;6.87;;
209;SDS011;90;48.810;9.120;2023-05-15T11:33:03;7.23;;;6.83;;
209;SDS011;90;48.810;9.120;2023-05-15T11:35:33;7.53;;;6.50;;
209;SDS011;90;48.810;9.120;2023-05-15T11:38:03;7.40;;;6.57;;
209;SDS011;90;48.810;9.120;2023-05-15T11:40:43;6.63;;;6.23;;
209;SDS011;90;48.810;9.120;2023-05-15T11:43:15;8.17;;;7.50;;
209;SDS011;90;48.810;9.120;2023-05-15T11:45:44;7.27;;;6.90;;
209;SDS011;90;48.810;9.120;2023-05-15T11:48:13;17.50;;;8.90;;
209;SDS011;90;48.810;9.120;2023-05-15T11:50:41;7.70;;;6.47;;
209;SDS011;90;48.810;9.120;2023-05-15T11:53:09;7.40;;;7.00;;
209;SDS011;90;48.810;9.120;2023-05-15T11:55:37;8.10;;;7.00;;
209;SDS011;90;48.810;9.120;2023-05-15T11:58:09;7.20;;;6.27;;
209;SDS011;90;48.810;9.120;2023-05-15T12:00:36;8.63;;;7.97;;
209;SDS011;90;48.810;9.120;2023-05-15T12:03:03;7.93;;;7.53;;
209;SDS011;90;48.810;9.120;2023-05-15T12:05:30;10.70;;;7.30;;
209;SDS011;90;48.810;9.120;2023-05-15T12:07:57;8.30;;;7.90;;
209;SDS011;90;48.810;9.120;2023-05-15T12:10:24;7.70;;;7.20;;
209;SDS011;90;48.810;9.120;2023-05-15T12:12:50;6.93;;;6.53;;
209;SDS011;90;48.810;9.120;2023-05-15T12:15:18;7.90;;;7.50;;
209;SDS011;90;48.810;9.120;2023-05-15T12:17:45;7.33;;;6.97;;
209;SDS011;90;48.810;9.120;2023-05-15T12:20:14;6.73;;;6.33;;
209;SDS011;90;48.810;9.120;2023-05-15T12:22:42;6.95;;;6.55;;
209;SDS011;90;48.810;9.120;2023-05-15T12:25:09;10.57;;;7.10;;
209;SDS011;90;48.810;9.120;2023-05-15T12:27:37;6.70;;;6.30;;
209;SDS011;90;48.810;9.120;2023-05-15T12:30:05;8.73;;;7.70;;
209;SDS011;90;48.810;9.120;2023-05-15T12:32:35;8.37;;;7.53;;
209;SDS011;90;48.810;9.120;2023-05-15T12:35:03;8.80;;;7.43;;
209;SDS011;90;48.810;9.120;2023-05-15T12:37:31;7.70;;;7.30;;
209;SDS011;90;48.810;9.120;2023-05-15T12:39:59;7.73;;;7.33;;
209;SDS011;90;48.810;9.120;2023-05-15T12:42:28;7.80;;;7.40;;
209;SDS011;90;48.810;9.120;2023-05-15T12:44:55;8.10;;;7.70;;
209;SDS011;90;48.810;9.120;2023-05-15T12:47:22;8.97;;;7.40;;
209;SDS011;90;48.810;9.120;2023-05-15T12:49:51;6.67;;;6.27;;
209;SDS011;90;48.810;9.120;2023-05-15T12:52:21;6.83;;;6.43;;
209;SDS011;90;48.810;9.120;2023-05-15T12:54:49;7.70;;;7.30;;
209;SDS011;90;48.810;9.120;2023-05-15T12:57:15;7.93;;;7.53;;
209;SDS011;90;48.810;9.120;2023-05-15T12:59:42;7.60;;;7.20;;
209;SDS011;90;48.810;9.120;2023-05-15T13:02:09;7.97;;;7.57;;
209;SDS011;90;48.810;9.120;2023-05-15T13:04:37;7.83;;;7.43;;
209;SDS011;90;48.810;9.120;2023-05-15T13:07:06;8.60;;;8.10;;
209;SDS011;90;48.810;9.120;2023-05-15T13:09:33;7.60;;;7.20;;
209;SDS011;90;48.810;9.120;2023-05-15T13:12:02;8.33;;;7.70;;
209;SDS011;90;48.810;9.120;2023-05-15T13:14:32;9.03;;;8.40;;
209;SDS011;90;48.810;9.120;2023-05-15T13:17:00;9.80;;;7.70;;
209;SDS011;90;48.810;9.120;2023-05-15T13:19:28;11.00;;;8.40;;
209;SDS011;90;48.810;9.120;2023-05-15T13:21:55;9.63;;;8.27;;
209;SDS011;90;48.810;9.120;2023-05-15T13:24:24;9.67;;;8.03;;
209;SDS011;90;48.810;9.120;2023-05-15T13:26:51;8.67;;;7.90;;
209;SDS011;90;48.810;9.120;2023-05-15T13:29:17;7.60;;;7.20;;
209;SDS011;90;48.810;9.120;2023-05-15T13:31:44;11.10;;;9.00;;
209;SDS011;90;48.810;9.120;2023-05-15T13:34:11;9.30;;;8.60;;
209;SDS011;90;48.810;9.120;2023-05-15T13:36:38;12.20;;;8.63;;
209;SDS011;90;48.810;9.120;2023-05-15T13:39:05;9.97;;;9.23;;
209;SDS011;90;48.810;9.120;2023-05-15T13:41:34;9.20;;;8.33;;
209;SDS011;90;48.810;9.120;2023-05-15T13:44:01;9.43;;;8.60;;
209;SDS011;90;48.810;9.120;2023-05-15T13:46:28;8.50;;;8.03;;
209;SDS011;90;48.810;9.120;2023-05-15T13:48:55;11.30;;;8.70;;
209;SDS011;90;48.810;9.120;2023-05-15T13:51:22;10.13;;;8.70;;
209;SDS011;90;48.810;9.120;2023-05-15T13:53:49;9.47;;;8.87;;
209;SDS011;90;48.810;9.120;2023-05-15T13:56:15;8.40;;;7.97;;
209;SDS011;90;48.810;9.120;2023-05-15T13:58:43;8.77;;;8.27;;
209;SDS011;90;48.810;9.120;2023-05-15T14:01:10;9.17;;;8.67;;
209;SDS011;90;48.810;9.120;2023-05-15T14:03:37;10.20;;;8.30;;
209;SDS011;90;48.810;9.120;2023-05-15T14:06:04;11.10;;;8.83;;
209;SDS011;90;48.810;9.120;2023-05-15T14:08:32;11.30;;;8.30;;
209;SDS011;90;48.810;9.120;2023-05-15T14:10:59;9.53;;;9.00;;
209;SDS011;90;48.810;9.120;2023-05-15T14:13:26;9.60;;;8.73;;
209;SDS011;90;48.810;9.120;2023-05-15T14:15:56;8.70;;;8.20;;
209;SDS011;90;48.810;9.120;2023-05-15T14:18:23;9.13;;;8.30;;
209;SDS011;90;48.810;9.120;2023-05-15T14:20:50;11.23;;;6.83;;
209;SDS011;90;48.810;9.120;2023-05-15T14:23:17;9.90;;;8.50;;
209;SDS011;90;48.810;9.120;2023-05-15T14:25:44;20.30;;;9.27;;
209;SDS011;90;48.810;9.120;2023-05-15T14:28:11;8.57;;;8.07;;
209;SDS011;90;48.810;9.120;2023-05-15T14:30:38;9.27;;;8.80;;
209;SDS011;90;48.810;9.120;2023-05-15T14:33:06;9.97;;;9.10;;
209;SDS011;90;48.810;9.120;2023-05-15T14:35:33;8.33;;;7.90;;
209;SDS011;90;48.810;9.120;2023-05-15T14:37:59;10.47;;;7.17;;
209;SDS011;90;48.810;9.120;2023-05-15T14:40:26;9.33;;;8.87;;
209;SDS011;90;48.810;9.120;2023-05-15T14:42:54;12.67;;;9.33;;
209;SDS011;90;48.810;9.120;2023-05-15T14:45:20;10.43;;;8.80;;
209;SDS011;90;48.810;9.120;2023-05-15T14:47:47;9.97;;;9.47;;
209;SDS011;90;48.810;9.120;2023-05-15T14:50:16;10.00;;;8.93;;
209;SDS011;90;48.810;9.120;2023-05-15T14:52:43;9.30;;;8.47;;
209;SDS011;90;48.810;9.120;2023-05-15T14:55:09;8.20;;;7.80;;
209;SDS011;90;48.810;9.120;2023-05-15T14:57:36;8.23;;;7.83;;
209;SDS011;90;48.810;9.120;2023-05-15T15:00:04;8.60;;;7.70;;
209;SDS011;90;48.810;9.120;2023-05-15T15:02:32;7.27;;;6.87;;
209;SDS011;90;48.810;9.120;2023-05-15T15:04:58;7.43;;;7.00;;
209;SDS011;90;48.810;9.120;2023-05-15T15:07:27;7.30;;;6.90;;
209;SDS011;90;48.810;9.120;2023-05-15T15:09:54;7.83;;;7.43;;
209;SDS011;90;48.810;9.120;2023-05-15T15:12:21;7.70;;;7.20;;
209;SDS011;90;48.810;9.120;2023-05-15T15:14:48;7.73;;;6.97;;
209;SDS011;90;48.810;9.120;2023-05-15T15:17:14;6.20;;;5.90;;
209;SDS011;90;48.810;9.120;2023-05-15T15:19:42;10.70;;;5.70;;
209;SDS011;90;48.810;9.120;2023-05-15T15:22:09;7.40;;;7.00;;
209;SDS011;90;48.810;9.120;2023-05-15T15:24:37;11.83;;;7.37;;
209;SDS011;90;48.810;9.120;2023-05-15T15:27:04;7.27;;;6.87;;
209;SDS011;90;48.810;9.120;2023-05-15T15:29:31;6.20;;;5.90;;
209;SDS011;90;48.810;9.120;2023-05-15T15:31:57;14.03;;;7.37;;
209;SDS011;90;48.810;9.120;2023-05-15T15:34:24;8.47;;;7.47;;
209;SDS011;90;48.810;9.120;2023-05-15T15:36:51;9.03;;;8.60;;
209;SDS011;90;48.810;9.120;2023-05-15T15:39:18;13.80;;;9.40;;
209;SDS011;90;48.810;9.120;2023-05-15T15:41:46;14.87;;;11.10;;
209;SDS011;90;48.810;9.120;2023-05-15T15:44:12;10.00;;;9.37;;
209;SDS011;90;48.810;9.120;2023-05-15T15:46:39;10.43;;;9.23;;
209;SDS011;90;48.810;9.120;2023-05-15T15:49:06;13.70;;;10.30;;
209;SDS011;90;48.810;9.120;2023-05-15T15:51:33;12.97;;;9.50;;
209;SDS011;90;48.810;9.120;2023-05-15T15:54:00;11.03;;;8.93;;
209;SDS011;90;48.810;9.120;2023-05-15T15:56:27;11.93;;;10.37;;
209;SDS011;90;48.810;9.120;2023-05-15T15:58:55;10.90;;;9.10;;
209;SDS011;90;48.810;9.120;2023-05-15T16:01:21;11.57;;;10.20;;
209;SDS011;90;48.810;9.120;2023-05-15T16:03:48;12.60;;;8.23;;
209;SDS011;90;48.810;9.120;2023-05-15T16:06:15;10.53;;;9.30;;